Aérodrome :
LOGIN :

S'inscrire | Disclaimer

   EN    FR    IT 

 










Légende :    VFR   VFR Marginal   IFR   IFR Intensif   IFR Très Intensif
Visi : 
Plafond : 
>= 8 km
>= 3000ft
5 à 8 km
1000 à 3000 ft
1500m à 5 km
500 à 1000 ft
800 à 1500m
200 à 500 ft
< 800m
< 200 ft
Symboles :   Orages  Brouillard  Fortes neiges  Fortes précipitations  Vent > 20 kt
SIGMETs :   Divers  Orages  Givrage  Turbulence  Onde Orograph.  Cendres Volcan.






- Altitude de l'aérodrome : 587 ft
- Code IATA : XCR


LFOK - Chalons Vatry

DERNIER METAR :
  • 172200Z AUTO 23013KT 9999 FEW017 05/04 Q1023 NOSIG

METARs EXPIRÉS :
  • 172130Z AUTO 23012KT 9999 FEW020 BKN140 06/05 Q1023 NOSIG
  • 172100Z AUTO 21008KT 9999 FEW022 05/04 Q1023 TEMPO 24020G37KT 4000 SHRA BKN020CB
  • 172030Z AUTO 23009KT 9999 BKN025 BKN038 BKN068 06/05 Q1023 TEMPO 24020G37KT 4000 SHRA BKN020CB
  • 172000Z AUTO 23012KT 9999 FEW029 BKN041 BKN054 06/05 Q1022 TEMPO 24020G37KT 4000 SHRA BKN020CB
  • 171930Z AUTO 26017KT 7000 -RA FEW017 BKN033 BKN039 07/05 Q1022 TEMPO 24020G37KT 4000 SHRA BKN020CB

TAF TAF LFOK
Valide du 17 à 18h jusqu'au 18 à 18h UTC


171700Z 1718/1818 24017G27KT 9999 BKN030
TEMPO 1718/1722 4000 SHRA BKN020CB
PROB30
TEMPO 1718/1722 24020G37KT
BECMG 1720/1722 24015KT
PROB30 1800/1809 BKN007
PROB30
TEMPO 1814/1818 4000 SHRA BKN020CB



MET'MAP, la Météo Aéronautique d'un coup d'oeil ! - Copyright ORBIFLY Décembre 2007 - Disclaimer

ORBIFLY MET'MAP TEAM :

Programmation & Développement : Alexandra Zaïnal
Sur une idée originale de : Baudouin d'Aumeries
Assistance à la programmation : Marc-Olivier Méhu
Soutien technique & logistique : Manuel Goepfert

Contact : metmap@orbifly.com




SOURCES & CREDITS :

   NOAA